Walters, Oklahoma
Current Conditions -  °F | °C
As of 8:07 AM on Friday 19 Dec 2014 (Local Time) from KLAW Reporting Station
Haze Haze  
Wind Chill: 36°   Ceiling: 400
Heat Index: 41°   Visibility: 2.5mi
Dew Point: 39°   Wind: 8mph
Humidity: 93%   Direction: 30°NNE
Pressure: 30.22"   Gusts: NA
Location:  34.36°N, 98.31°W
Report Text: KLAW 191407Z AUTO 03007KT 2 1/2SM BR OVC004 05/04 A3022 RMK AO2 T00500039
Loading
Personal Weather Stations






























Interactive Weather Map New forecast layout! Learn more

10-Day Weather Forecast

Advertisements
Track Severe Weather on mobile